Terminal Aerodrome Forecast
Issued by NWS

Home | Current Version | Previous Version | Text Only | Print | Product List | Glossary On
Versions: 1 2 3 4 5 6 7 8 9 10 11 12 13 14 15 16
000
FTUS44 KOUN 261731
TAFCSM
TAF
KCSM 261731Z 2618/2718 02010KT P6SM BKN008 OVC025
      TEMPO 2618/2622 5SM -SHRA OVC015
     FM270600 02008KT 5SM -SHRA OVC009=

USA.gov is the U.S. government's official web portal to all federal, state and local government web resources and services.